Time;durP1;ratioP1;P1;durP2;ratioP2;P2;SDS_P1;SDS_P2;PMS_P1;PMS_P2;Temp;Humidity;BMP_temperature;BMP_pressure;BME280_temperature;BME280_humidity;BME280_pressure;Samples;Min_cycle;Max_cycle;Signal;HPM_P1;HPM_P2
2022/07/18 00:02:13;;;;;;;3.57;2.10;;;20.30;99.90;;;;;;6176561;23;20157;-81
2022/07/18 00:04:40;;;;;;;3.67;2.47;;;20.30;1.00;;;;;;6126282;23;20631;-82
2022/07/18 00:07:10;;;;;;;2.97;2.20;;;20.20;99.90;;;;;;6150953;23;20750;-82
2022/07/18 00:09:38;;;;;;;4.70;2.37;;;20.00;99.90;;;;;;6124670;23;20244;-82
2022/07/18 00:12:06;;;;;;;4.67;2.77;;;19.90;1.00;;;;;;6150058;23;20184;-83
2022/07/18 00:14:34;;;;;;;6.53;2.20;;;19.90;1.00;;;;;;6127142;23;20236;-83
2022/07/18 00:17:02;;;;;;;3.57;2.33;;;19.80;1.00;;;;;;6124300;23;20224;-81
2022/07/18 00:19:29;;;;;;;7.13;2.60;;;19.80;99.90;;;;;;6121823;23;20161;-82
2022/07/18 00:21:56;;;;;;;6.33;2.77;;;19.80;1.00;;;;;;6171567;23;20173;-82
2022/07/18 00:24:23;;;;;;;4.83;2.43;;;19.80;1.00;;;;;;6147382;23;20161;-83
2022/07/18 00:26:50;;;;;;;4.10;2.33;;;19.70;1.00;;;;;;6173720;23;20161;-83
2022/07/18 00:29:17;;;;;;;5.13;2.60;;;19.70;1.00;;;;;;6147507;23;20168;-81
2022/07/18 00:31:44;;;;;;;4.00;2.43;;;19.70;1.00;;;;;;6146689;23;20236;-81
2022/07/18 00:34:11;;;;;;;5.70;1.93;;;19.70;1.00;;;;;;6148555;23;20168;-83
2022/07/18 00:36:38;;;;;;;3.57;2.50;;;19.70;1.00;;;;;;6150906;23;20189;-83
2022/07/18 00:39:05;;;;;;;5.60;2.60;;;19.70;1.00;;;;;;6125308;23;20208;-81
2022/07/18 00:41:32;;;;;;;4.30;2.30;;;19.70;99.90;;;;;;6150638;23;20704;-83
2022/07/18 00:43:59;;;;;;;6.37;2.63;;;19.60;99.90;;;;;;6151106;23;20343;-83
2022/07/18 00:46:27;;;;;;;5.13;2.57;;;19.60;99.90;;;;;;6124642;23;20172;-82
2022/07/18 00:48:55;;;;;;;4.77;2.87;;;19.60;99.90;;;;;;6149964;23;20165;-82
2022/07/18 00:51:22;;;;;;;2.77;2.20;;;19.60;99.90;;;;;;6168811;23;20993;-82
2022/07/18 00:53:49;;;;;;;4.20;2.33;;;19.60;99.90;;;;;;6177709;23;20172;-82
2022/07/18 00:56:18;;;;;;;4.30;2.50;;;19.60;99.90;;;;;;6155542;23;20180;-83
2022/07/18 00:58:46;;;;;;;3.50;2.43;;;19.60;99.90;;;;;;6156818;23;20496;-83
2022/07/18 01:04:00;;;;;;;3.27;2.30;;;19.50;1.00;;;;;;6206072;23;20183;-83
2022/07/18 01:06:27;;;;;;;3.80;2.70;;;19.40;1.00;;;;;;6155936;23;20222;-83
2022/07/18 01:08:56;;;;;;;3.53;2.53;;;19.40;1.00;;;;;;6154937;23;20922;-81
2022/07/18 01:11:23;;;;;;;4.50;3.00;;;19.30;1.00;;;;;;6181152;23;20168;-83
2022/07/18 01:13:50;;;;;;;7.13;3.53;;;19.30;99.90;;;;;;6180160;23;20251;-83
2022/07/18 01:16:17;;;;;;;3.23;2.60;;;19.40;99.90;;;;;;6156770;23;20242;-83
2022/07/18 01:18:49;;;;;;;4.93;2.93;;;19.40;99.90;;;;;;6155231;23;20504;-82
2022/07/18 01:21:16;;;;;;;5.83;2.60;;;19.40;99.90;;;;;;6156475;23;20545;-83
2022/07/18 01:23:44;;;;;;;4.33;3.00;;;19.40;99.90;;;;;;6179277;23;20917;-82
2022/07/18 01:26:16;;;;;;;6.57;3.17;;;19.40;99.90;;;;;;6131954;23;20732;-82
2022/07/18 01:28:45;;;;;;;6.80;3.00;;;19.40;99.90;;;;;;6154872;23;20169;-83
2022/07/18 01:31:12;;;;;;;4.90;3.00;;;19.30;99.90;;;;;;6180220;23;20195;-82
2022/07/18 01:33:39;;;;;;;7.60;4.10;;;19.30;99.90;;;;;;6178656;23;20175;-82
2022/07/18 01:36:07;;;;;;;6.47;3.17;;;19.30;99.90;;;;;;6155210;23;20265;-82
2022/07/18 01:38:35;;;;;;;5.53;3.17;;;19.30;1.00;;;;;;6179606;23;20243;-81
2022/07/18 01:41:02;;;;;;;6.60;3.30;;;19.20;1.00;;;;;;6180351;23;20203;-82
2022/07/18 01:43:29;;;;;;;8.60;3.13;;;19.20;1.00;;;;;;6181706;23;20172;-82
2022/07/18 01:45:56;;;;;;;5.23;3.27;;;19.10;1.00;;;;;;6182145;23;20215;-81
2022/07/18 01:48:24;;;;;;;5.17;3.23;;;19.20;1.00;;;;;;6133314;23;20191;-82
2022/07/18 01:50:52;;;;;;;5.33;3.77;;;19.10;1.00;;;;;;6180599;23;20242;-82
2022/07/18 01:53:19;;;;;;;6.93;3.20;;;19.10;1.00;;;;;;6182294;23;20250;-83
2022/07/18 01:55:47;;;;;;;5.33;3.40;;;19.00;1.00;;;;;;6182110;23;20238;-81
2022/07/18 01:58:14;;;;;;;5.33;3.33;;;19.10;1.00;;;;;;6158702;23;20164;-82
2022/07/18 02:00:41;;;;;;;5.10;3.50;;;19.00;1.00;;;;;;6158719;23;20600;-83
2022/07/18 02:03:08;;;;;;;7.20;4.03;;;19.00;1.00;;;;;;6158065;23;20171;-81
2022/07/18 02:05:35;;;;;;;7.00;3.20;;;19.00;1.00;;;;;;6183385;23;20490;-82
2022/07/18 02:08:02;;;;;;;6.87;3.33;;;19.00;1.00;;;;;;6164283;23;20168;-81
2022/07/18 02:10:29;;;;;;;5.63;4.10;;;19.00;99.90;;;;;;6193319;23;20164;-82
2022/07/18 02:12:56;;;;;;;5.20;3.43;;;19.00;1.00;;;;;;6166356;23;20202;-83
2022/07/18 02:15:23;;;;;;;4.47;3.63;;;19.00;1.00;;;;;;6169300;23;20180;-83
2022/07/18 02:17:50;;;;;;;5.47;3.73;;;19.00;99.90;;;;;;6191480;23;20175;-83
2022/07/18 02:20:17;;;;;;;4.97;3.50;;;19.00;99.90;;;;;;6166969;23;20172;-82
2022/07/18 02:22:44;;;;;;;6.90;3.83;;;19.00;99.90;;;;;;6167665;23;20156;-82
2022/07/18 02:25:12;;;;;;;6.93;3.80;;;19.00;99.90;;;;;;6161449;23;20167;-83
2022/07/18 02:27:39;;;;;;;7.33;4.00;;;19.00;99.90;;;;;;6187503;23;20199;-83
2022/07/18 02:30:08;;;;;;;9.10;4.33;;;18.90;99.90;;;;;;6185706;23;20167;-82
2022/07/18 02:32:37;;;;;;;6.50;4.10;;;18.90;1.00;;;;;;6213350;23;20472;-81
2022/07/18 02:35:06;;;;;;;10.27;4.07;;;18.90;99.90;;;;;;6184096;23;20214;-82
2022/07/18 02:37:34;;;;;;;4.63;3.40;;;18.80;1.00;;;;;;6159749;23;20164;-82
2022/07/18 02:40:01;;;;;;;7.50;3.90;;;18.80;1.00;;;;;;6184006;23;20242;-82
2022/07/18 02:42:27;;;;;;;6.83;3.70;;;18.80;1.00;;;;;;6184906;23;20156;-83
2022/07/18 02:44:54;;;;;;;6.90;4.03;;;18.80;1.00;;;;;;6158560;23;20626;-81
2022/07/18 02:47:21;;;;;;;4.43;3.93;;;18.70;1.00;;;;;;6158195;23;20227;-82
2022/07/18 02:49:48;;;;;;;4.37;3.53;;;18.70;1.00;;;;;;6154670;23;20221;-82
2022/07/18 02:52:15;;;;;;;6.00;3.73;;;18.70;1.00;;;;;;6127572;23;20184;-82
2022/07/18 02:54:42;;;;;;;4.67;4.10;;;18.60;1.00;;;;;;6127538;23;20172;-83
2022/07/18 02:57:09;;;;;;;6.37;4.00;;;18.60;1.00;;;;;;6128130;23;20176;-83
2022/07/18 02:59:36;;;;;;;7.37;4.00;;;18.60;1.00;;;;;;6177112;23;20157;-82
2022/07/18 03:02:03;;;;;;;5.67;3.60;;;18.60;1.00;;;;;;6127122;23;20157;-82
2022/07/18 03:04:31;;;;;;;6.33;4.33;;;18.50;1.00;;;;;;6150482;23;20165;-82
2022/07/18 03:06:59;;;;;;;4.37;3.60;;;18.50;1.00;;;;;;6152564;23;20165;-83
2022/07/18 03:09:27;;;;;;;5.67;4.03;;;18.60;1.00;;;;;;6127495;23;20173;-83
2022/07/18 03:11:55;;;;;;;5.37;4.00;;;18.50;1.00;;;;;;6150860;23;20176;-82
2022/07/18 03:14:22;;;;;;;6.37;3.83;;;18.50;1.00;;;;;;6179987;23;20183;-82
2022/07/18 03:16:49;;;;;;;6.07;3.77;;;18.40;1.00;;;;;;6154223;23;20247;-82
2022/07/18 03:19:16;;;;;;;7.13;3.83;;;18.40;1.00;;;;;;6152090;23;20169;-82
2022/07/18 03:21:43;;;;;;;5.70;4.40;;;18.40;1.00;;;;;;6153785;23;20203;-83
2022/07/18 03:24:10;;;;;;;4.93;4.13;;;18.40;1.00;;;;;;6180352;23;20223;-83
2022/07/18 03:26:38;;;;;;;7.23;4.20;;;18.40;1.00;;;;;;6153302;23;20223;-82
2022/07/18 03:29:05;;;;;;;6.67;3.80;;;18.30;1.00;;;;;;6129407;23;20257;-83
2022/07/18 03:31:31;;;;;;;4.80;3.97;;;18.30;1.00;;;;;;6129198;23;20612;-83
2022/07/18 03:33:59;;;;;;;5.17;4.07;;;18.20;1.00;;;;;;6153011;23;20165;-83
2022/07/18 03:36:26;;;;;;;8.60;4.40;;;18.20;1.00;;;;;;6128454;23;20275;-82
2022/07/18 03:38:53;;;;;;;6.23;4.10;;;18.30;1.00;;;;;;6153185;23;20589;-83
2022/07/18 03:41:21;;;;;;;5.60;3.70;;;18.30;1.00;;;;;;6128229;23;20240;-82
2022/07/18 03:43:47;;;;;;;5.83;4.83;;;18.20;1.00;;;;;;6152505;23;20157;-82
2022/07/18 03:46:14;;;;;;;5.70;4.10;;;18.20;1.00;;;;;;6128916;23;20169;-83
2022/07/18 03:48:41;;;;;;;5.67;4.20;;;18.20;1.00;;;;;;6153643;23;20242;-84
2022/07/18 03:51:08;;;;;;;5.97;4.53;;;18.20;1.00;;;;;;6145216;23;20266;-83
2022/07/18 03:53:35;;;;;;;10.43;4.30;;;18.10;1.00;;;;;;6157532;23;20223;-82
2022/07/18 03:56:02;;;;;;;7.00;4.47;;;18.10;1.00;;;;;;6158483;23;20759;-83
2022/07/18 03:58:29;;;;;;;5.57;4.00;;;18.10;99.90;;;;;;6208136;23;20214;-83
2022/07/18 04:00:56;;;;;;;6.53;4.70;;;18.10;99.90;;;;;;6208869;23;20164;-83
2022/07/18 04:03:23;;;;;;;5.33;4.47;;;18.10;99.90;;;;;;6182314;23;20338;-82
2022/07/18 04:05:50;;;;;;;9.33;4.67;;;18.10;1.00;;;;;;6182235;23;20164;-83
2022/07/18 04:08:17;;;;;;;6.43;4.37;;;18.00;1.00;;;;;;6183094;23;20684;-83
2022/07/18 04:10:44;;;;;;;6.10;4.53;;;18.10;1.00;;;;;;6134834;23;20161;-82
2022/07/18 04:13:11;;;;;;;11.17;4.20;;;18.10;1.00;;;;;;6156553;23;20210;-83
2022/07/18 04:15:39;;;;;;;4.83;4.10;;;18.10;1.00;;;;;;6182372;23;20160;-83
2022/07/18 04:18:07;;;;;;;8.77;4.07;;;18.10;1.00;;;;;;6180844;23;20187;-81
2022/07/18 04:20:35;;;;;;;5.23;4.60;;;18.00;1.00;;;;;;6205754;23;20183;-83
2022/07/18 04:23:05;;;;;;;9.07;4.17;;;18.10;1.00;;;;;;6181384;23;20156;-82
2022/07/18 04:25:40;;;;;;;6.27;4.27;;;18.10;1.00;;;;;;6155350;23;20543;-83
2022/07/18 04:28:10;;;;;;;8.43;4.53;;;18.10;1.00;;;;;;6179178;23;20173;-82
2022/07/18 04:30:39;;;;;;;8.23;4.50;;;18.10;1.00;;;;;;6180054;23;20160;-81
2022/07/18 04:33:07;;;;;;;8.60;4.77;;;18.20;1.00;;;;;;6180779;23;20156;-81
2022/07/18 04:35:38;;;;;;;7.50;4.87;;;18.20;1.00;;;;;;6155242;23;20168;-83
2022/07/18 04:38:07;;;;;;;5.83;4.37;;;18.30;1.00;;;;;;6157039;23;20176;-82
2022/07/18 04:40:34;;;;;;;7.03;4.03;;;18.20;1.00;;;;;;6179666;23;20246;-82
2022/07/18 04:43:01;;;;;;;7.93;4.27;;;18.20;1.00;;;;;;6181040;23;20604;-83
2022/07/18 04:45:28;;;;;;;7.80;4.50;;;18.20;1.00;;;;;;6132549;23;20550;-82
2022/07/18 04:47:55;;;;;;;6.07;4.23;;;18.20;1.00;;;;;;6180902;23;20165;-83
2022/07/18 04:50:23;;;;;;;5.83;4.50;;;18.30;1.00;;;;;;6125821;22;20226;-83
2022/07/18 04:52:51;;;;;;;7.00;4.43;;;18.30;1.00;;;;;;6128242;23;20597;-81
2022/07/18 04:55:21;;;;;;;5.67;4.33;;;18.30;1.00;;;;;;6149715;23;20157;-82
2022/07/18 04:57:49;;;;;;;5.70;4.70;;;18.40;1.00;;;;;;6150873;23;20208;-83
2022/07/18 05:00:24;;;;;;;6.47;5.03;;;18.40;1.00;;;;;;6150560;23;20169;-81
2022/07/18 05:02:54;;;;;;;6.43;4.47;;;18.40;1.00;;;;;;6126918;23;20601;-83
2022/07/18 05:05:23;;;;;;;8.00;4.87;;;18.30;1.00;;;;;;6149286;23;20259;-83
2022/07/18 05:07:51;;;;;;;7.53;4.93;;;18.40;1.00;;;;;;6127192;23;20183;-83
2022/07/18 05:10:20;;;;;;;8.80;5.00;;;18.40;1.00;;;;;;6149470;23;20169;-83
2022/07/18 05:12:51;;;;;;;7.97;4.87;;;18.50;1.00;;;;;;6127386;23;20165;-82
2022/07/18 05:15:20;;;;;;;8.40;5.50;;;18.50;1.00;;;;;;6151909;23;20533;-83
2022/07/18 05:17:48;;;;;;;8.40;5.30;;;18.60;1.00;;;;;;6128107;23;20185;-82
2022/07/18 05:20:17;;;;;;;11.57;6.60;;;18.60;1.00;;;;;;6128527;23;20536;-84
2022/07/18 05:22:44;;;;;;;10.93;5.57;;;18.60;1.00;;;;;;6152327;23;20214;-79
2022/07/18 05:25:12;;;;;;;7.07;5.27;;;18.60;1.00;;;;;;6127085;23;20163;-80
2022/07/18 05:27:40;;;;;;;204.07;28.40;;;18.70;1.00;;;;;;6153756;23;20184;-79
2022/07/18 05:30:10;;;;;;;25.70;7.50;;;18.80;1.00;;;;;;6127902;23;20171;-83
2022/07/18 05:32:38;;;;;;;7.60;5.43;;;19.00;1.00;;;;;;6153448;23;20521;-84
2022/07/18 05:35:06;;;;;;;9.70;5.00;;;19.00;1.00;;;;;;6127572;23;20161;-84
2022/07/18 05:37:35;;;;;;;8.50;4.70;;;19.10;1.00;;;;;;6128068;23;20264;-85
2022/07/18 05:40:04;;;;;;;7.57;5.20;;;19.10;99.90;;;;;;6127649;23;20664;-85
2022/07/18 05:42:31;;;;;;;8.67;4.93;;;19.10;1.00;;;;;;6154214;23;21043;-84
2022/07/18 05:45:18;;;;;;;8.20;4.97;;;19.30;1.00;;;;;;6155869;23;20180;-85
2022/07/18 05:47:45;;;;;;;6.87;5.60;;;19.30;1.00;;;;;;6130923;23;20578;-83
2022/07/18 05:50:12;;;;;;;13.97;5.93;;;19.50;1.00;;;;;;6129634;23;20219;-84
2022/07/18 05:52:39;;;;;;;35.00;8.20;;;19.70;99.90;;;;;;6129022;23;20487;-84
2022/07/18 05:55:06;;;;;;;11.83;4.77;;;19.80;99.90;;;;;;6129664;23;21093;-84
2022/07/18 05:57:34;;;;;;;10.10;4.90;;;19.80;99.90;;;;;;6128952;23;20810;-84
2022/07/18 06:00:04;;;;;;;9.73;4.50;;;19.90;99.90;;;;;;6153013;23;20176;-84
2022/07/18 06:02:31;;;;;;;10.63;5.23;;;20.10;99.90;;;;;;6152269;23;20235;-84
2022/07/18 06:04:59;;;;;;;7.60;4.93;;;20.10;99.90;;;;;;6159258;23;20157;-81
2022/07/18 06:07:46;;;;;;;8.13;4.93;;;20.00;99.90;;;;;;6142694;23;20183;-84
2022/07/18 06:10:13;;;;;;;9.23;4.97;;;19.90;99.90;;;;;;6134908;23;20231;-82
2022/07/18 06:12:40;;;;;;;8.00;4.47;;;19.90;99.90;;;;;;6138032;23;20168;-81
2022/07/18 06:15:07;;;;;;;7.30;5.00;;;19.90;99.90;;;;;;6161741;23;20173;-81
2022/07/18 06:17:36;;;;;;;6.37;4.90;;;20.00;1.00;;;;;;6159207;23;20204;-81
2022/07/18 06:20:05;;;;;;;8.03;4.87;;;20.10;1.00;;;;;;6155029;23;20164;-82
2022/07/18 06:22:32;;;;;;;7.97;5.20;;;20.20;99.90;;;;;;6135244;23;20508;-82
2022/07/18 06:24:59;;;;;;;9.20;5.20;;;20.20;99.90;;;;;;6133851;23;20160;-83
2022/07/18 06:27:26;;;;;;;6.73;4.73;;;20.30;99.90;;;;;;6157634;23;20187;-83
2022/07/18 06:29:53;;;;;;;7.07;4.77;;;20.50;99.90;;;;;;6157576;23;20165;-81
2022/07/18 06:32:20;;;;;;;11.00;4.87;;;20.70;99.90;;;;;;6133722;23;20550;-82
2022/07/18 06:34:47;;;;;;;8.47;4.77;;;20.80;99.90;;;;;;6130569;23;20165;-81
2022/07/18 06:37:13;;;;;;;7.83;4.80;;;20.90;99.90;;;;;;6131614;23;20177;-81
2022/07/18 06:39:40;;;;;;;8.37;4.70;;;21.10;99.90;;;;;;6154520;23;20168;-82
2022/07/18 06:42:07;;;;;;;8.77;4.83;;;21.30;99.90;;;;;;6151684;23;20164;-81
2022/07/18 06:44:34;;;;;;;5.77;4.43;;;21.40;99.90;;;;;;6155022;23;20215;-81
2022/07/18 06:47:01;;;;;;;11.37;4.70;;;21.60;99.90;;;;;;6152120;23;20199;-81
2022/07/18 06:49:28;;;;;;;7.30;5.43;;;21.60;99.90;;;;;;6127593;23;20495;-82
2022/07/18 06:51:55;;;;;;;12.70;5.60;;;21.70;78.60;;;;;;6152191;23;20280;-81
2022/07/18 06:54:29;;;;;;;7.40;5.43;;;21.80;1.00;;;;;;6160902;23;20222;-82
2022/07/18 06:56:59;;;;;;;9.10;5.30;;;22.00;1.00;;;;;;6157255;23;20283;-81
2022/07/18 06:59:26;;;;;;;7.03;4.97;;;22.20;1.00;;;;;;6158670;23;20944;-81
2022/07/18 07:01:52;;;;;;;8.43;5.17;;;22.30;1.00;;;;;;6181386;23;20164;-81
2022/07/18 07:04:20;;;;;;;8.57;5.10;;;22.50;1.00;;;;;;6156639;23;20600;-81
2022/07/18 07:06:46;;;;;;;9.20;4.90;;;22.60;1.00;;;;;;6158707;23;20164;-81
2022/07/18 07:09:13;;;;;;;7.17;5.13;;;22.70;99.90;;;;;;6156939;23;20218;-81
2022/07/18 07:11:40;;;;;;;6.00;5.50;;;23.00;1.00;;;;;;6154855;23;20165;-81
2022/07/18 07:14:07;;;;;;;8.33;4.80;;;23.00;1.00;;;;;;6154836;23;20192;-81
2022/07/18 07:16:34;;;;;;;6.47;5.00;;;23.30;1.00;;;;;;6157290;23;20181;-81
2022/07/18 07:19:01;;;;;;;6.97;4.10;;;23.50;1.00;;;;;;6207816;23;20163;-81
2022/07/18 07:21:28;;;;;;;8.63;4.00;;;23.70;1.00;;;;;;6207809;23;20167;-81
2022/07/18 07:23:55;;;;;;;9.67;4.40;;;23.80;1.00;;;;;;6155709;23;20262;-82
2022/07/18 07:26:22;;;;;;;7.60;4.57;;;23.70;1.00;;;;;;6132480;23;20465;-81
2022/07/18 07:28:48;;;;;;;6.33;4.27;;;23.90;1.00;;;;;;6150254;23;20476;-82
2022/07/18 07:31:15;;;;;;;105.10;13.90;;;23.90;1.00;;;;;;6207042;23;20172;-81
2022/07/18 07:33:44;;;;;;;50.27;7.97;;;24.00;1.00;;;;;;6155134;23;20160;-81
2022/07/18 07:36:11;;;;;;;24.87;7.40;;;24.10;1.00;;;;;;6155643;23;20164;-82
2022/07/18 07:38:38;;;;;;;10.60;3.80;;;24.10;1.00;;;;;;6208027;23;20195;-81
2022/07/18 07:41:06;;;;;;;8.70;3.80;;;24.30;1.00;;;;;;6155663;23;20253;-81
2022/07/18 07:43:36;;;;;;;9.43;4.00;;;24.70;1.00;;;;;;6155451;23;20507;-81
2022/07/18 07:46:03;;;;;;;6.60;3.70;;;24.80;1.00;;;;;;6156270;23;20192;-81
2022/07/18 07:48:30;;;;;;;5.73;3.73;;;24.90;1.00;;;;;;6154445;23;20172;-81
2022/07/18 07:50:57;;;;;;;4.43;3.03;;;25.00;1.00;;;;;;6179317;23;20204;-81
2022/07/18 07:53:24;;;;;;;7.50;3.70;;;25.20;1.00;;;;;;6179745;23;20164;-81
2022/07/18 07:55:51;;;;;;;7.00;4.50;;;25.40;1.00;;;;;;6155858;23;20172;-81
2022/07/18 07:58:19;;;;;;;7.13;3.60;;;25.30;1.00;;;;;;6154444;23;20279;-81
2022/07/18 08:00:46;;;;;;;6.73;3.17;;;25.50;1.00;;;;;;6157070;23;20156;-81
2022/07/18 08:03:13;;;;;;;4.43;2.70;;;25.50;1.00;;;;;;6156617;23;20236;-81
2022/07/18 08:05:46;;;;;;;4.53;2.30;;;25.70;1.00;;;;;;6156889;23;20160;-81
2022/07/18 08:08:13;;;;;;;3.90;2.53;;;26.00;1.00;;;;;;6181225;23;20505;-81
2022/07/18 08:10:41;;;;;;;4.53;2.22;;;26.10;1.00;;;;;;6156587;23;20161;-82
2022/07/18 08:13:11;;;;;;;7.85;2.10;;;26.10;1.00;;;;;;6155663;23;20187;-82
2022/07/18 08:15:39;;;;;;;6.07;2.57;;;26.00;1.00;;;;;;6157500;23;20169;-82
2022/07/18 08:18:06;;;;;;;5.72;2.38;;;26.10;1.00;;;;;;6155225;23;20200;-81
2022/07/18 08:20:34;;;;;;;5.50;2.30;;;26.40;1.00;;;;;;6179163;23;20160;-81
2022/07/18 08:23:05;;;;;;;5.25;2.17;;;26.50;1.00;;;;;;6155803;23;20222;-82
2022/07/18 08:25:34;;;;;;;4.53;2.03;;;26.90;1.00;;;;;;6182759;23;20163;-82
2022/07/18 08:28:02;;;;;;;4.33;2.00;;;26.80;1.00;;;;;;6206071;23;20231;-82
2022/07/18 08:30:30;;;;;;;3.30;2.00;;;26.90;1.00;;;;;;6180382;23;20164;-81
2022/07/18 08:32:58;;;;;;;5.93;2.00;;;27.10;1.00;;;;;;6205457;23;20735;-79
2022/07/18 08:35:25;;;;;;;6.83;2.00;;;26.80;1.00;;;;;;6155855;23;20164;-79
2022/07/18 08:37:52;;;;;;;2.63;1.80;;;27.70;1.00;;;;;;6178051;23;20199;-79
2022/07/18 08:40:19;;;;;;;3.80;1.60;;;28.20;1.00;;;;;;6174598;23;20192;-79
2022/07/18 08:42:51;;;;;;;4.93;2.23;;;29.60;1.00;;;;;;6177144;23;20171;-79
2022/07/18 08:45:41;;;;;;;6.23;2.00;;;29.30;1.00;;;;;;6180993;23;20178;-79
2022/07/18 08:48:09;;;;;;;4.50;2.00;;;30.50;1.00;;;;;;6156185;23;20172;-80
2022/07/18 08:50:36;;;;;;;3.03;1.80;;;29.90;1.00;;;;;;6199478;23;20691;-80
2022/07/18 08:53:03;;;;;;;5.37;2.00;;;29.40;1.00;;;;;;6147046;23;20169;-79
2022/07/18 08:55:30;;;;;;;4.57;1.60;;;29.10;1.00;;;;;;6149303;23;20200;-79
2022/07/18 08:57:57;;;;;;;6.07;2.13;;;28.90;1.00;;;;;;6125711;23;20213;-80
2022/07/18 09:00:35;;;;;;;3.87;1.97;;;29.00;1.00;;;;;;6153252;23;20177;-79
2022/07/18 09:03:06;;;;;;;5.33;2.10;;;29.30;1.00;;;;;;6129758;23;20178;-79
2022/07/18 09:05:33;;;;;;;2.55;1.67;;;30.50;1.00;;;;;;6128007;23;20541;-79
2022/07/18 09:08:16;;;;;;;4.38;2.00;;;30.70;1.00;;;;;;6153917;23;20200;-79
2022/07/18 09:10:54;;;;;;;2.65;1.60;;;30.90;1.00;;;;;;6176398;23;20188;-80
2022/07/18 09:13:43;;;;;;;4.07;1.60;;;31.50;99.90;;;;;;6177755;23;20776;-82
2022/07/18 09:16:14;;;;;;;4.28;1.98;;;30.90;99.90;;;;;;6169910;23;20263;-81
2022/07/18 09:18:48;;;;;;;2.22;1.83;;;29.80;99.90;;;;;;6118494;23;20195;-79
2022/07/18 09:21:20;;;;;;;4.07;1.60;;;30.60;1.00;;;;;;6175310;23;20161;-80
2022/07/18 09:23:52;;;;;;;3.90;2.00;;;31.00;99.90;;;;;;6175293;23;20854;-78
2022/07/18 09:26:52;;;;;;;7.90;2.05;;;30.70;99.90;;;;;;6140377;23;20200;-78
2022/07/18 09:29:19;;;;;;;3.85;1.80;;;30.40;99.90;;;;;;6063766;23;20176;-78
2022/07/18 09:31:57;;;;;;;2.30;1.65;;;31.40;99.90;;;;;;6131196;23;20509;-82
2022/07/18 09:34:38;;;;;;;5.43;2.20;;;31.40;99.90;;;;;;6129772;23;20544;-82
2022/07/18 09:37:10;;;;;;;2.90;1.35;;;31.50;99.90;;;;;;6156042;23;20181;-81
2022/07/18 09:39:38;;;;;;;4.55;2.17;;;31.40;99.90;;;;;;6156129;23;20172;-82
2022/07/18 09:42:18;;;;;;;2.83;1.50;;;31.00;99.90;;;;;;6133975;23;20172;-79
2022/07/18 09:44:58;;;;;;;6.15;2.10;;;31.70;99.90;;;;;;6157452;23;20256;-81
2022/07/18 09:47:25;;;;;;;5.38;1.75;;;32.50;99.90;;;;;;6158709;23;20195;-79
2022/07/18 09:49:52;;;;;;;4.78;1.40;;;31.30;99.90;;;;;;6159160;23;20168;-79
2022/07/18 09:52:20;;;;;;;6.25;2.00;;;31.20;99.90;;;;;;6159213;23;20208;-81
2022/07/18 09:54:47;;;;;;;4.63;1.80;;;31.00;99.90;;;;;;6164987;23;20195;-80
2022/07/18 09:57:25;;;;;;;8.00;1.80;;;30.50;99.90;;;;;;6162353;23;20196;-79
2022/07/18 09:59:52;;;;;;;10.50;2.20;;;30.50;99.90;;;;;;6137734;23;20167;-81
2022/07/18 10:02:20;;;;;;;2.97;1.77;;;31.50;99.90;;;;;;6188757;23;20207;-79
2022/07/18 10:04:47;;;;;;;8.70;1.80;;;32.30;99.90;;;;;;6192106;23;20156;-79
2022/07/18 10:07:15;;;;;;;10.20;3.15;;;31.70;99.90;;;;;;6154849;23;20226;-79
2022/07/18 10:09:45;;;;;;;3.17;2.10;;;31.80;99.90;;;;;;6202537;23;20230;-79
2022/07/18 10:12:14;;;;;;;9.00;1.75;;;32.30;99.90;;;;;;6157715;23;20740;-80
2022/07/18 10:14:42;;;;;;;3.63;2.03;;;31.10;99.90;;;;;;6200956;23;20559;-81
2022/07/18 10:17:10;;;;;;;3.63;1.83;;;31.20;99.90;;;;;;6154675;23;20166;-79
2022/07/18 10:19:37;;;;;;;9.32;2.22;;;31.60;99.90;;;;;;6182731;23;20930;-80
2022/07/18 10:22:07;;;;;;;5.60;1.70;;;31.00;99.90;;;;;;6133183;23;20161;-80
2022/07/18 10:24:40;;;;;;;4.90;1.20;;;30.70;99.90;;;;;;6181399;23;20170;-81
2022/07/18 10:27:25;;;;;;;2.22;1.50;;;30.00;99.90;;;;;;6179644;23;20163;-81
2022/07/18 10:30:10;;;;;;;3.17;2.00;;;30.70;99.90;;;;;;6156516;23;20888;-81
2022/07/18 10:32:38;;;;;;;5.80;1.80;;;30.80;99.90;;;;;;6181578;23;20164;-81
2022/07/18 10:35:10;;;;;;;2.70;1.73;;;30.30;99.90;;;;;;6206973;23;20491;-81
2022/07/18 10:37:38;;;;;;;4.90;1.50;;;30.30;99.90;;;;;;6181049;23;20199;-81
2022/07/18 10:40:24;;;;;;;5.40;1.90;;;30.50;99.90;;;;;;6177389;23;20258;-81
2022/07/18 10:43:29;;;;;;;1.80;1.52;;;30.40;99.90;;;;;;6178176;23;20164;-81
2022/07/18 10:45:58;;;;;;;4.97;2.03;;;30.60;99.90;;;;;;6174945;23;20195;-81
2022/07/18 10:48:37;;;;;;;3.15;1.60;;;30.70;99.90;;;;;;6177438;23;20254;-81
2022/07/18 10:51:11;;;;;;;3.22;1.52;;;30.50;99.90;;;;;;6177492;23;20238;-80
2022/07/18 10:53:53;;;;;;;2.53;1.55;;;30.40;99.90;;;;;;6178993;23;20170;-80
2022/07/18 10:56:26;;;;;;;3.15;2.10;;;30.50;99.90;;;;;;6176759;23;20163;-80
2022/07/18 10:58:55;;;;;;;4.72;1.88;;;30.40;99.90;;;;;;6203279;23;20188;-80
2022/07/18 11:01:24;;;;;;;3.28;1.48;;;30.70;99.90;;;;;;6206841;23;20191;-80
2022/07/18 11:04:25;;;;;;;3.92;1.55;;;30.80;99.90;;;;;;6180173;23;20188;-80
2022/07/18 11:07:14;;;;;;;3.60;1.90;;;30.80;99.90;;;;;;6205376;23;20179;-80
2022/07/18 11:09:47;;;;;;;2.45;1.80;;;30.80;99.90;;;;;;6201881;23;20164;-79
2022/07/18 11:12:31;;;;;;;2.58;1.58;;;31.20;99.90;;;;;;6180095;23;20163;-80
2022/07/18 11:15:11;;;;;;;2.38;1.33;;;31.50;99.90;;;;;;6152928;23;20172;-80
2022/07/18 11:18:01;;;;;;;2.55;1.50;;;32.70;99.90;;;;;;6180240;23;20283;-80
2022/07/18 11:20:38;;;;;;;3.40;1.77;;;32.60;99.90;;;;;;6175335;23;20192;-80
2022/07/18 11:23:13;;;;;;;2.45;1.88;;;33.30;99.90;;;;;;6176725;23;20233;-80
2022/07/18 11:25:41;;;;;;;4.80;1.80;;;33.20;99.90;;;;;;6203895;23;20160;-80
2022/07/18 11:28:24;;;;;;;4.47;2.00;;;33.10;99.90;;;;;;6180523;23;20176;-80
2022/07/18 11:31:09;;;;;;;5.53;1.70;;;32.20;99.90;;;;;;6176239;23;20915;-80
2022/07/18 11:33:46;;;;;;;5.00;1.77;;;33.90;99.90;;;;;;6177301;23;20172;-80
2022/07/18 11:36:17;;;;;;;6.03;1.88;;;34.20;99.90;;;;;;6175160;23;20180;-80
2022/07/18 11:38:49;;;;;;;4.32;1.92;;;33.60;99.90;;;;;;6180523;23;20185;-80
2022/07/18 11:41:17;;;;;;;5.28;1.83;;;33.80;99.90;;;;;;6202662;23;20192;-80
2022/07/18 11:43:45;;;;;;;2.97;1.73;;;33.80;99.90;;;;;;6178171;23;20263;-80
2022/07/18 11:46:14;;;;;;;4.47;2.13;;;34.50;99.90;;;;;;6179169;23;20684;-80
2022/07/18 11:48:45;;;;;;;2.85;1.70;;;34.40;99.90;;;;;;6179735;23;20258;-80
2022/07/18 11:51:14;;;;;;;2.80;1.65;;;34.30;99.90;;;;;;6178223;23;20480;-80
2022/07/18 11:53:49;;;;;;;4.93;1.70;;;33.70;99.90;;;;;;6179976;23;20156;-80
2022/07/18 11:56:17;;;;;;;2.95;1.88;;;34.10;99.90;;;;;;6179065;23;20226;-79
2022/07/18 11:58:48;;;;;;;3.65;2.03;;;34.20;99.90;;;;;;6200247;23;20187;-80
2022/07/18 12:01:15;;;;;;;2.42;1.80;;;35.00;99.90;;;;;;6153041;23;20160;-81
2022/07/18 12:03:48;;;;;;;3.95;1.90;;;34.20;99.90;;;;;;6177976;23;20486;-81
2022/07/18 12:06:22;;;;;;;5.32;1.90;;;34.20;99.90;;;;;;6179380;23;20554;-80
2022/07/18 12:09:00;;;;;;;6.38;1.95;;;34.20;99.90;;;;;;6178001;23;20176;-80
2022/07/18 12:11:36;;;;;;;1.88;1.70;;;34.60;99.90;;;;;;6204180;23;20175;-80
2022/07/18 12:14:14;;;;;;;5.60;2.00;;;34.30;99.90;;;;;;6180960;23;20184;-81
2022/07/18 12:16:56;;;;;;;2.10;1.65;;;35.40;99.90;;;;;;6201640;23;20612;-80
2022/07/18 12:19:33;;;;;;;2.70;1.60;;;35.80;99.90;;;;;;6158273;23;20180;-81
2022/07/18 12:22:03;;;;;;;3.67;1.90;;;34.80;99.90;;;;;;6180910;23;20171;-80
2022/07/18 12:24:36;;;;;;;5.88;1.65;;;34.80;99.90;;;;;;6181872;23;20522;-79
2022/07/18 12:27:38;;;;;;;3.45;1.55;;;34.80;99.90;;;;;;6203245;23;20172;-80
2022/07/18 12:30:20;;;;;;;6.15;1.75;;;34.90;99.90;;;;;;6032559;23;20182;-80
2022/07/18 12:32:47;;;;;;;2.03;1.60;;;34.70;99.90;;;;;;6035830;23;20186;-79
2022/07/18 12:35:28;;;;;;;2.00;1.75;;;34.30;99.90;;;;;;6082740;23;20557;-80
2022/07/18 12:38:05;;;;;;;5.78;1.98;;;35.50;99.90;;;;;;6083615;23;20301;-80
2022/07/18 12:40:53;;;;;;;1.75;1.55;;;35.30;99.90;;;;;;6081031;23;20277;-80
2022/07/18 12:43:29;;;;;;;4.15;1.75;;;35.50;99.90;;;;;;6059133;23;20614;-80
2022/07/18 12:45:58;;;;;;;1.50;1.40;;;36.10;99.90;;;;;;6058638;23;20253;-80
2022/07/18 12:48:27;;;;;;;3.20;1.80;;;36.00;99.90;;;;;;6036404;23;20264;-80
2022/07/18 12:50:58;;;;;;;3.63;2.47;;;35.30;99.90;;;;;;6047033;23;20763;-80
2022/07/18 12:53:26;;;;;;;3.60;2.72;;;34.40;99.90;;;;;;6029637;23;20968;-80
2022/07/18 12:55:54;;;;;;;3.13;1.60;;;35.00;99.90;;;;;;6028157;23;20183;-80
2022/07/18 12:58:21;;;;;;;2.33;1.85;;;34.40;99.90;;;;;;6006117;23;20205;-80
2022/07/18 13:00:49;;;;;;;2.47;1.77;;;34.50;99.90;;;;;;6005488;23;20187;-80
2022/07/18 13:03:16;;;;;;;3.30;1.88;;;33.80;99.90;;;;;;6047486;23;20267;-80
2022/07/18 13:05:43;;;;;;;1.88;1.58;;;33.40;99.90;;;;;;6124653;23;20671;-80
2022/07/18 13:08:10;;;;;;;1.70;1.50;;;33.90;99.90;;;;;;6122516;23;20566;-81